Time;durP1;ratioP1;P1;durP2;ratioP2;P2;SDS_P1;SDS_P2;PMS_P1;PMS_P2;Temp;Humidity;BMP_temperature;BMP_pressure;BME280_temperature;BME280_humidity;BME280_pressure;Samples;Min_cycle;Max_cycle;Signal;HPM_P1;HPM_P2
2022/04/21 00:02:06;;;;;;;4.97;4.22;;;;;;;;;;6259346;28;20057;-71
2022/04/21 00:05:09;;;;;;;7.53;3.95;;;;;;;;;;6258426;28;20052;-72
2022/04/21 00:08:15;;;;;;;8.52;3.63;;;;;;;;;;6260817;28;20448;-73
2022/04/21 00:11:16;;;;;;;8.27;4.63;;;;;;;;;;6260573;28;20056;-72
2022/04/21 00:14:18;;;;;;;6.50;3.53;;;;;;;;;;6259924;28;20044;-71
2022/04/21 00:17:20;;;;;;;5.13;3.20;;;;;;;;;;6261135;28;20045;-72
2022/04/21 00:20:22;;;;;;;5.15;3.63;;;;;;;;;;6255150;28;20187;-73
2022/04/21 00:23:28;;;;;;;6.53;3.55;;;;;;;;;;6255015;28;20045;-72
2022/04/21 00:26:30;;;;;;;8.35;3.20;;;;;;;;;;6254321;28;20060;-72
2022/04/21 00:29:32;;;;;;;7.47;3.40;;;;;;;;;;6254611;28;20114;-72
2022/04/21 00:32:33;;;;;;;5.78;3.10;;;;;;;;;;6260030;28;20041;-73
2022/04/21 00:35:35;;;;;;;5.00;3.53;;;;;;;;;;6254296;28;20076;-72
2022/04/21 00:38:38;;;;;;;7.10;3.58;;;;;;;;;;6257377;28;20059;-72
2022/04/21 00:41:42;;;;;;;4.80;3.30;;;;;;;;;;6258890;28;20053;-72
2022/04/21 00:44:43;;;;;;;5.68;3.45;;;;;;;;;;6257337;28;20630;-73
2022/04/21 00:47:46;;;;;;;5.18;3.50;;;;;;;;;;6259911;28;20053;-72
2022/04/21 00:50:48;;;;;;;5.53;2.60;;;;;;;;;;6263423;28;20382;-72
2022/04/21 00:53:51;;;;;;;7.60;4.28;;;;;;;;;;6258580;28;20072;-73
2022/04/21 00:56:53;;;;;;;4.55;2.92;;;;;;;;;;6260857;28;20126;-72
2022/04/21 00:59:55;;;;;;;4.38;2.85;;;;;;;;;;6257696;28;20049;-72
2022/04/21 01:02:58;;;;;;;3.75;2.72;;;;;;;;;;6256703;28;20060;-72
2022/04/21 01:05:59;;;;;;;6.68;2.80;;;;;;;;;;6256016;28;20084;-72
2022/04/21 01:09:02;;;;;;;6.80;2.63;;;;;;;;;;6261379;28;20393;-72
2022/04/21 01:12:05;;;;;;;5.50;3.00;;;;;;;;;;6257531;28;20180;-72
2022/04/21 01:15:07;;;;;;;5.60;3.15;;;;;;;;;;6260999;28;20123;-74
2022/04/21 01:18:09;;;;;;;8.05;2.90;;;;;;;;;;6260001;28;20083;-74
2022/04/21 01:21:12;;;;;;;5.82;2.90;;;;;;;;;;6249103;28;20053;-73
2022/04/21 01:24:14;;;;;;;8.57;3.30;;;;;;;;;;6254804;28;20045;-72
2022/04/21 01:27:16;;;;;;;4.78;3.13;;;;;;;;;;6253242;28;20087;-73
2022/04/21 01:30:17;;;;;;;7.45;3.40;;;;;;;;;;6257517;28;20136;-72
2022/04/21 01:33:19;;;;;;;4.38;2.63;;;;;;;;;;6256136;28;20110;-73
2022/04/21 01:36:22;;;;;;;4.22;3.22;;;;;;;;;;6260252;28;20398;-74
2022/04/21 01:42:42;;;;;;;3.92;3.17;;;;;;;;;;6256366;28;20076;-72
2022/04/21 01:45:44;;;;;;;4.07;2.80;;;;;;;;;;6260402;28;20049;-73
2022/04/21 01:48:45;;;;;;;4.60;2.75;;;;;;;;;;6257539;28;20049;-73
2022/04/21 01:51:48;;;;;;;5.68;2.97;;;;;;;;;;6256501;28;20123;-75
2022/04/21 01:54:51;;;;;;;4.88;2.75;;;;;;;;;;6256609;28;20108;-72
2022/04/21 01:57:52;;;;;;;5.82;2.80;;;;;;;;;;6255620;28;20053;-74
2022/04/21 02:00:54;;;;;;;6.68;3.05;;;;;;;;;;6260174;28;20122;-72
2022/04/21 02:03:55;;;;;;;3.78;2.55;;;;;;;;;;6254425;28;20563;-72
2022/04/21 02:06:58;;;;;;;3.33;2.60;;;;;;;;;;6259323;28;20635;-73
2022/04/21 02:10:00;;;;;;;6.13;3.00;;;;;;;;;;6259042;28;20064;-73
2022/04/21 02:13:02;;;;;;;5.22;2.83;;;;;;;;;;6264822;28;20056;-75
2022/04/21 02:16:04;;;;;;;5.07;2.42;;;;;;;;;;6265280;28;20049;-73
2022/04/21 02:19:06;;;;;;;11.25;2.78;;;;;;;;;;6259133;28;20116;-73
2022/04/21 02:22:09;;;;;;;4.10;2.60;;;;;;;;;;6258277;28;20049;-72
2022/04/21 02:25:12;;;;;;;5.00;3.00;;;;;;;;;;6263062;28;20396;-72
2022/04/21 02:28:13;;;;;;;6.55;2.63;;;;;;;;;;6258266;28;20389;-73
2022/04/21 02:31:15;;;;;;;5.25;2.63;;;;;;;;;;6256099;28;20045;-72
2022/04/21 02:34:16;;;;;;;4.47;2.97;;;;;;;;;;6260258;28;20440;-72
2022/04/21 02:37:19;;;;;;;3.90;2.63;;;;;;;;;;6260905;28;20053;-72
2022/04/21 02:40:21;;;;;;;3.90;2.50;;;;;;;;;;6258559;28;20128;-72
2022/04/21 02:43:23;;;;;;;5.68;2.38;;;;;;;;;;6257606;28;20056;-72
2022/04/21 02:46:29;;;;;;;5.15;2.67;;;;;;;;;;6260594;28;20540;-72
2022/04/21 02:49:30;;;;;;;4.68;2.58;;;;;;;;;;6261166;28;20088;-72
2022/04/21 02:52:35;;;;;;;4.70;2.80;;;;;;;;;;6258817;28;20049;-72
2022/04/21 02:59:01;;;;;;;6.90;2.80;;;;;;;;;;6209659;28;20057;-73
2022/04/21 03:02:03;;;;;;;5.38;3.25;;;;;;;;;;6212677;28;20399;-73
2022/04/21 03:05:05;;;;;;;4.68;2.88;;;;;;;;;;6210662;28;20606;-72
2022/04/21 03:08:08;;;;;;;4.13;2.53;;;;;;;;;;6213916;28;20065;-72
2022/04/21 03:11:10;;;;;;;6.32;2.60;;;;;;;;;;6209864;28;20050;-72
2022/04/21 03:14:12;;;;;;;3.72;2.65;;;;;;;;;;6210521;28;20545;-73
2022/04/21 03:17:13;;;;;;;5.07;2.47;;;;;;;;;;6210790;28;20147;-74
2022/04/21 03:26:52;;;;;;;4.32;2.80;;;;;;;;;;6209494;28;20133;-72
2022/04/21 03:29:55;;;;;;;6.37;2.70;;;;;;;;;;6204668;28;20050;-73
2022/04/21 03:32:57;;;;;;;6.10;2.92;;;;;;;;;;6200844;28;20712;-72
2022/04/21 03:35:58;;;;;;;3.55;2.50;;;;;;;;;;6240072;28;20103;-72
2022/04/21 03:39:01;;;;;;;5.57;2.80;;;;;;;;;;6257678;28;20190;-72
2022/04/21 03:42:04;;;;;;;4.07;2.60;;;;;;;;;;6257439;28;20534;-73
2022/04/21 03:45:07;;;;;;;4.75;2.70;;;;;;;;;;6255486;28;20073;-73
2022/04/21 03:48:08;;;;;;;5.50;2.55;;;;;;;;;;6254172;28;20060;-72
2022/04/21 03:51:10;;;;;;;8.52;3.38;;;;;;;;;;6258164;28;20411;-72
2022/04/21 03:54:13;;;;;;;3.10;2.42;;;;;;;;;;6256849;28;20049;-72
2022/04/21 03:57:15;;;;;;;5.72;2.65;;;;;;;;;;6258236;28;20223;-72
2022/04/21 04:00:17;;;;;;;5.47;2.80;;;;;;;;;;6261328;28;20084;-72
2022/04/21 04:03:18;;;;;;;5.20;2.55;;;;;;;;;;6259350;28;20132;-73
2022/04/21 04:12:59;;;;;;;2.78;2.33;;;;;;;;;;6249178;28;20052;-74
2022/04/21 04:16:01;;;;;;;6.15;2.58;;;;;;;;;;6263659;28;20519;-75
2022/04/21 04:19:05;;;;;;;5.63;2.60;;;;;;;;;;6258448;28;20111;-72
2022/04/21 04:22:07;;;;;;;4.60;2.67;;;;;;;;;;6260034;28;20057;-73
2022/04/21 04:25:10;;;;;;;4.55;2.92;;;;;;;;;;6260593;28;20055;-73
2022/04/21 04:28:12;;;;;;;3.72;2.50;;;;;;;;;;6261976;28;20421;-72
2022/04/21 04:31:14;;;;;;;4.75;2.58;;;;;;;;;;6254794;28;20064;-73
2022/04/21 04:34:16;;;;;;;3.90;2.58;;;;;;;;;;6261529;28;20182;-73
2022/04/21 04:37:17;;;;;;;7.15;2.53;;;;;;;;;;6257569;28;20833;-73
2022/04/21 04:40:20;;;;;;;4.13;2.50;;;;;;;;;;6263329;28;20056;-72
2022/04/21 04:43:22;;;;;;;4.03;2.63;;;;;;;;;;6265058;28;20136;-72
2022/04/21 04:46:38;;;;;;;7.53;2.33;;;;;;;;;;6259939;28;20041;-75
2022/04/21 04:49:40;;;;;;;3.10;2.40;;;;;;;;;;6259934;28;20669;-73
2022/04/21 04:52:42;;;;;;;5.18;2.42;;;;;;;;;;6259730;28;20057;-72
2022/04/21 04:55:45;;;;;;;5.28;2.50;;;;;;;;;;6257061;28;20053;-73
2022/04/21 04:58:46;;;;;;;6.00;2.80;;;;;;;;;;6258360;28;20058;-72
2022/04/21 05:01:48;;;;;;;4.13;2.90;;;;;;;;;;6259504;28;20073;-72
2022/04/21 05:04:50;;;;;;;5.07;2.85;;;;;;;;;;6257286;28;20409;-72
2022/04/21 05:07:51;;;;;;;3.40;2.20;;;;;;;;;;6261010;28;20159;-73
2022/04/21 05:10:55;;;;;;;5.50;2.65;;;;;;;;;;6256216;28;20076;-74
2022/04/21 05:13:56;;;;;;;6.18;2.28;;;;;;;;;;6258367;28;20107;-74
2022/04/21 05:16:58;;;;;;;5.47;2.30;;;;;;;;;;6261398;28;20503;-72
2022/04/21 05:20:00;;;;;;;5.97;2.25;;;;;;;;;;6258802;28;20519;-72
2022/04/21 05:23:05;;;;;;;5.32;2.58;;;;;;;;;;6263900;28;20130;-73
2022/04/21 05:26:09;;;;;;;4.32;2.50;;;;;;;;;;6253878;28;20076;-72
2022/04/21 05:32:35;;;;;;;4.53;2.20;;;;;;;;;;6255048;28;20056;-73
2022/04/21 05:35:37;;;;;;;5.25;2.78;;;;;;;;;;6254490;28;20435;-71
2022/04/21 05:38:39;;;;;;;4.03;2.20;;;;;;;;;;6254929;28;20049;-72
2022/04/21 05:41:44;;;;;;;5.13;2.13;;;;;;;;;;6253897;28;20050;-72
2022/04/21 05:44:47;;;;;;;5.07;2.40;;;;;;;;;;6257612;28;20056;-72
2022/04/21 05:47:48;;;;;;;6.00;2.20;;;;;;;;;;6260793;28;20053;-72
2022/04/21 05:50:53;;;;;;;4.53;2.20;;;;;;;;;;6260250;28;20179;-72
2022/04/21 05:53:58;;;;;;;4.10;2.03;;;;;;;;;;6259319;28;20408;-72
2022/04/21 05:57:02;;;;;;;3.65;1.83;;;;;;;;;;6259216;28;20053;-77
2022/04/21 06:00:05;;;;;;;70.18;7.70;;;;;;;;;;6258986;28;20124;-74
2022/04/21 06:03:06;;;;;;;3.88;1.98;;;;;;;;;;6261386;28;20909;-73
2022/04/21 06:06:09;;;;;;;10.77;3.15;;;;;;;;;;6258783;28;20049;-76
2022/04/21 06:09:11;;;;;;;5.18;3.55;;;;;;;;;;6253030;28;20054;-77
2022/04/21 06:12:15;;;;;;;16.63;4.10;;;;;;;;;;6262522;28;20555;-81
2022/04/21 06:15:16;;;;;;;5.88;3.80;;;;;;;;;;6256873;28;20202;-74
2022/04/21 06:18:18;;;;;;;5.45;2.65;;;;;;;;;;6252095;28;20069;-75
2022/04/21 06:21:20;;;;;;;3.60;2.30;;;;;;;;;;6251728;28;20502;-76
2022/04/21 06:24:21;;;;;;;6.03;3.83;;;;;;;;;;6254591;28;20060;-74
2022/04/21 06:27:24;;;;;;;3.72;2.33;;;;;;;;;;6255750;28;20160;-75
2022/04/21 06:30:26;;;;;;;7.00;3.08;;;;;;;;;;6260304;28;20079;-75
2022/04/21 06:33:31;;;;;;;4.95;2.72;;;;;;;;;;6256289;28;20053;-74
2022/04/21 06:36:33;;;;;;;4.32;2.40;;;;;;;;;;6259626;28;20167;-74
2022/04/21 06:39:35;;;;;;;8.85;2.13;;;;;;;;;;6254165;28;20686;-71
2022/04/21 06:42:41;;;;;;;3.08;2.00;;;;;;;;;;6258718;28;20587;-72
2022/04/21 06:49:03;;;;;;;7.10;2.42;;;;;;;;;;6257861;28;20049;-72
2022/04/21 06:52:06;;;;;;;3.35;1.48;;;;;;;;;;6260670;28;20485;-71
2022/04/21 06:55:08;;;;;;;5.07;1.90;;;;;;;;;;6256875;28;20401;-68
2022/04/21 06:58:11;;;;;;;4.40;2.00;;;;;;;;;;6255472;28;20048;-70
2022/04/21 07:01:13;;;;;;;7.30;2.25;;;;;;;;;;6254694;28;20067;-71
2022/04/21 07:04:14;;;;;;;2.42;1.88;;;;;;;;;;6257237;28;20045;-71
2022/04/21 07:07:16;;;;;;;4.93;2.13;;;;;;;;;;6262224;28;20523;-71
2022/04/21 07:10:19;;;;;;;3.10;2.08;;;;;;;;;;6266335;28;20053;-71
2022/04/21 07:13:22;;;;;;;4.93;2.13;;;;;;;;;;6261622;28;20049;-71
2022/04/21 07:16:24;;;;;;;7.70;2.20;;;;;;;;;;6261180;28;20054;-71
2022/04/21 07:19:26;;;;;;;7.30;2.20;;;;;;;;;;6254809;28;20056;-71
2022/04/21 07:22:27;;;;;;;4.55;1.80;;;;;;;;;;6262855;28;20061;-72
2022/04/21 07:25:29;;;;;;;4.40;1.90;;;;;;;;;;6259787;28;20127;-71
2022/04/21 07:28:33;;;;;;;4.70;2.15;;;;;;;;;;6263107;28;20569;-72
2022/04/21 07:31:35;;;;;;;5.95;2.40;;;;;;;;;;6252342;28;20049;-72
2022/04/21 07:34:36;;;;;;;3.08;2.25;;;;;;;;;;6258220;28;20515;-72
2022/04/21 07:37:39;;;;;;;2.78;1.80;;;;;;;;;;6256521;28;20057;-72
2022/04/21 07:40:41;;;;;;;2.20;1.63;;;;;;;;;;6263122;28;20409;-72
2022/04/21 07:43:44;;;;;;;5.43;2.03;;;;;;;;;;6257324;28;20045;-72
2022/04/21 07:46:45;;;;;;;4.80;2.00;;;;;;;;;;6260993;28;20045;-71
2022/04/21 07:49:48;;;;;;;3.53;1.90;;;;;;;;;;6260945;28;20080;-72
2022/04/21 07:56:08;;;;;;;2.60;2.03;;;;;;;;;;6259602;28;20040;-72
2022/04/21 07:59:11;;;;;;;3.80;1.65;;;;;;;;;;6262124;28;20484;-72
2022/04/21 08:02:13;;;;;;;3.40;1.90;;;;;;;;;;6258649;28;20126;-71
2022/04/21 08:05:16;;;;;;;5.38;1.92;;;;;;;;;;6261372;28;20128;-72
2022/04/21 08:08:17;;;;;;;3.95;2.03;;;;;;;;;;6261358;28;20042;-72
2022/04/21 08:11:19;;;;;;;4.30;2.00;;;;;;;;;;6256200;28;20053;-72
2022/04/21 08:14:22;;;;;;;4.65;2.10;;;;;;;;;;6264641;28;20045;-73
2022/04/21 08:17:24;;;;;;;3.50;2.50;;;;;;;;;;6259312;28;20061;-73
2022/04/21 08:20:27;;;;;;;2.78;1.95;;;;;;;;;;6257020;28;20978;-72
2022/04/21 08:23:29;;;;;;;2.53;2.20;;;;;;;;;;6257822;28;20052;-73
2022/04/21 08:33:10;;;;;;;4.93;2.40;;;;;;;;;;6254161;28;20045;-72
2022/04/21 08:36:11;;;;;;;7.25;2.50;;;;;;;;;;6252851;28;20178;-73
2022/04/21 08:39:13;;;;;;;5.10;2.58;;;;;;;;;;6258203;28;20397;-73
2022/04/21 08:42:15;;;;;;;3.58;2.35;;;;;;;;;;6255868;28;20049;-74
2022/04/21 08:45:18;;;;;;;3.17;2.35;;;;;;;;;;6254857;28;20080;-72
2022/04/21 08:48:21;;;;;;;7.57;2.95;;;;;;;;;;6257190;28;20056;-72
2022/04/21 08:51:23;;;;;;;3.00;2.40;;;;;;;;;;6259823;28;20041;-73
2022/04/21 08:54:25;;;;;;;3.60;2.60;;;;;;;;;;6255093;28;20045;-72
2022/04/21 08:57:27;;;;;;;4.95;2.47;;;;;;;;;;6259636;28;20420;-72
2022/04/21 09:00:31;;;;;;;4.93;2.78;;;;;;;;;;6262148;28;20510;-73
2022/04/21 09:03:35;;;;;;;5.40;2.80;;;;;;;;;;6261248;28;20068;-72
2022/04/21 09:06:38;;;;;;;7.28;2.63;;;;;;;;;;6260309;28;20069;-71
2022/04/21 09:09:39;;;;;;;6.38;2.78;;;;;;;;;;6258720;28;20041;-70
2022/04/21 09:12:43;;;;;;;4.13;2.58;;;;;;;;;;6255153;28;20088;-70
2022/04/21 09:15:45;;;;;;;;;;;;;;;;;;6251078;28;20846;-71
2022/04/21 09:18:47;;;;;;;7.00;3.40;;;;;;;;;;6254320;28;19994;-71
2022/04/21 09:21:50;;;;;;;4.43;3.17;;;;;;;;;;6252160;28;20126;-71
2022/04/21 09:24:52;;;;;;;5.47;3.40;;;;;;;;;;6257446;28;20057;-71
2022/04/21 09:27:55;;;;;;;4.32;3.30;;;;;;;;;;6255795;28;20048;-71
2022/04/21 09:31:00;;;;;;;6.90;3.50;;;;;;;;;;6254056;28;20048;-71
2022/04/21 09:34:02;;;;;;;3.92;2.90;;;;;;;;;;6255351;28;20094;-71
2022/04/21 09:37:05;;;;;;;4.75;3.15;;;;;;;;;;6258187;28;20053;-72
2022/04/21 09:40:07;;;;;;;;;;;;;;;;;;6257406;28;20060;-73
2022/04/21 09:43:09;;;;;;;4.97;3.25;;;;;;;;;;6258188;28;20395;-73
2022/04/21 09:46:17;;;;;;;10.55;3.42;;;;;;;;;;6264475;28;20492;-73
2022/04/21 09:49:33;;;;;;;7.38;3.50;;;;;;;;;;6253847;28;20053;-72
2022/04/21 09:52:37;;;;;;;8.07;3.40;;;;;;;;;;6254566;28;20122;-72
2022/04/21 09:55:39;;;;;;;6.47;4.10;;;;;;;;;;6255657;28;20140;-72
2022/04/21 09:58:41;;;;;;;5.93;3.38;;;;;;;;;;6253962;28;20049;-72
2022/04/21 10:01:44;;;;;;;4.20;3.75;;;;;;;;;;6257905;28;20061;-71
2022/04/21 10:04:47;;;;;;;4.38;3.50;;;;;;;;;;6255480;28;20079;-72
2022/04/21 10:07:49;;;;;;;7.55;3.70;;;;;;;;;;6261260;28;20080;-72
2022/04/21 10:10:51;;;;;;;5.28;3.20;;;;;;;;;;6263079;28;20508;-72
2022/04/21 10:13:54;;;;;;;5.70;3.37;;;;;;;;;;6254312;28;20093;-72
2022/04/21 10:16:57;;;;;;;4.28;3.88;;;;;;;;;;6253833;28;20473;-71
2022/04/21 10:19:59;;;;;;;4.65;3.88;;;;;;;;;;6258392;28;20493;-72
2022/04/21 10:23:02;;;;;;;6.40;3.85;;;;;;;;;;6261169;28;20045;-71
2022/04/21 10:26:05;;;;;;;4.83;3.23;;;;;;;;;;6258207;28;20363;-72
2022/04/21 10:29:13;;;;;;;4.38;2.95;;;;;;;;;;6255318;28;20472;-72
2022/04/21 10:32:19;;;;;;;4.00;3.40;;;;;;;;;;6257773;28;20493;-72
2022/04/21 10:35:52;;;;;;;4.75;2.85;;;;;;;;;;6257424;28;20049;-72
2022/04/21 10:39:12;;;;;;;3.97;3.33;;;;;;;;;;6256728;28;20060;-72
2022/04/21 10:42:15;;;;;;;6.63;3.25;;;;;;;;;;6253516;28;20198;-72
2022/04/21 10:45:17;;;;;;;;;;;;;;;;;;6257031;28;20060;-72
2022/04/21 10:48:40;;;;;;;5.70;3.78;;;;;;;;;;6264676;28;19927;-72
2022/04/21 10:58:52;;;;;;;7.22;3.90;;;;;;;;;;6262196;28;20493;-71
2022/04/21 11:01:54;;;;;;;5.90;3.65;;;;;;;;;;6254026;28;20045;-71
2022/04/21 11:04:58;;;;;;;9.43;3.40;;;;;;;;;;6254914;28;20056;-72
2022/04/21 11:08:01;;;;;;;6.57;3.80;;;;;;;;;;6260603;28;20037;-73
2022/04/21 11:11:03;;;;;;;6.70;3.72;;;;;;;;;;6257496;28;20385;-73
2022/04/21 11:14:07;;;;;;;5.15;3.05;;;;;;;;;;6253021;28;20559;-73
2022/04/21 11:17:08;;;;;;;;;;;;;;;;;;6262107;28;20082;-74
2022/04/21 11:20:26;;;;;;;4.53;3.13;;;;;;;;;;6258376;28;20051;-73
2022/04/21 11:24:02;;;;;;;4.00;3.10;;;;;;;;;;6256398;28;20114;-73
2022/04/21 11:27:04;;;;;;;7.28;3.40;;;;;;;;;;6257727;28;20045;-72
2022/04/21 11:30:07;;;;;;;3.78;3.00;;;;;;;;;;6260149;28;20044;-73
2022/04/21 11:33:10;;;;;;;;;;;;;;;;;;6258794;28;20037;-72
2022/04/21 11:36:15;;;;;;;4.32;3.50;;;;;;;;;;6261183;28;19921;-71
2022/04/21 11:39:16;;;;;;;4.13;3.20;;;;;;;;;;6262242;28;20049;-72
2022/04/21 11:42:25;;;;;;;3.40;2.90;;;;;;;;;;6263860;28;20864;-75
2022/04/21 11:45:28;;;;;;;7.53;3.10;;;;;;;;;;6256936;28;20132;-75
2022/04/21 11:48:31;;;;;;;3.70;3.40;;;;;;;;;;6261872;28;20049;-75
2022/04/21 11:51:34;;;;;;;6.47;3.47;;;;;;;;;;6260840;28;20464;-77
2022/04/21 11:54:38;;;;;;;7.57;3.70;;;;;;;;;;6254040;28;20045;-76
2022/04/21 11:57:41;;;;;;;4.82;3.08;;;;;;;;;;6259124;28;20049;-74
2022/04/21 12:07:27;;;;;;;4.32;3.80;;;;;;;;;;6266193;28;19928;-76
2022/04/21 12:10:29;;;;;;;4.93;3.00;;;;;;;;;;6259790;28;20499;-76
2022/04/21 12:13:31;;;;;;;3.70;2.90;;;;;;;;;;6261922;28;20061;-76
2022/04/21 12:16:40;;;;;;;6.65;2.97;;;;;;;;;;6257900;28;20053;-76
2022/04/21 12:19:44;;;;;;;5.43;3.38;;;;;;;;;;6257181;28;20056;-75
2022/04/21 12:22:47;;;;;;;4.72;3.25;;;;;;;;;;6253042;28;20049;-76
2022/04/21 12:25:49;;;;;;;5.75;3.25;;;;;;;;;;6254388;28;20044;-76
2022/04/21 12:28:51;;;;;;;5.13;3.20;;;;;;;;;;6255417;28;20049;-76
2022/04/21 12:31:53;;;;;;;4.68;3.10;;;;;;;;;;6249691;28;20060;-76
2022/04/21 12:34:56;;;;;;;3.47;2.93;;;;;;;;;;6256497;28;20053;-76
2022/04/21 12:41:17;;;;;;;4.28;3.03;;;;;;;;;;6259720;28;20049;-76
2022/04/21 12:44:19;;;;;;;;;;;;;;;;;;6260694;28;20052;-73
2022/04/21 12:47:23;;;;;;;6.47;2.70;;;;;;;;;;6258012;28;20071;-77
2022/04/21 12:50:25;;;;;;;3.78;2.97;;;;;;;;;;6260118;28;20113;-73
2022/04/21 12:53:29;;;;;;;6.30;3.38;;;;;;;;;;6260286;28;20656;-76
2022/04/21 12:56:35;;;;;;;3.63;3.00;;;;;;;;;;6258566;28;20061;-75
2022/04/21 12:59:37;;;;;;;8.85;3.30;;;;;;;;;;6258192;28;20069;-76
2022/04/21 13:02:38;;;;;;;6.00;3.45;;;;;;;;;;6257971;28;20493;-76
2022/04/21 13:05:45;;;;;;;5.53;3.47;;;;;;;;;;6261188;28;20134;-76
2022/04/21 13:08:48;;;;;;;5.13;3.75;;;;;;;;;;6259751;28;20056;-76
2022/04/21 13:11:50;;;;;;;3.83;3.28;;;;;;;;;;6258316;28;20100;-76
2022/04/21 13:14:51;;;;;;;5.03;3.65;;;;;;;;;;6255553;28;20052;-76
2022/04/21 13:17:53;;;;;;;5.05;3.53;;;;;;;;;;6261768;28;20401;-76
2022/04/21 13:24:15;;;;;;;5.30;3.53;;;;;;;;;;6260246;28;20045;-75
2022/04/21 13:27:16;;;;;;;4.32;3.08;;;;;;;;;;6261880;28;20553;-76
2022/04/21 13:30:18;;;;;;;3.60;2.80;;;;;;;;;;6262070;28;20084;-76
2022/04/21 13:33:22;;;;;;;4.45;3.58;;;;;;;;;;6253154;28;20448;-75
2022/04/21 13:36:23;;;;;;;4.32;3.30;;;;;;;;;;6256897;28;20992;-76
2022/04/21 13:39:26;;;;;;;5.80;3.30;;;;;;;;;;6257783;28;20064;-74
2022/04/21 13:42:28;;;;;;;4.05;3.13;;;;;;;;;;6253927;28;20060;-75
2022/04/21 13:45:30;;;;;;;5.35;3.75;;;;;;;;;;6258332;28;20134;-75
2022/04/21 13:48:32;;;;;;;8.35;4.47;;;;;;;;;;6252895;28;20425;-76
2022/04/21 13:51:33;;;;;;;8.07;4.55;;;;;;;;;;6259164;28;20084;-75
2022/04/21 13:54:36;;;;;;;7.57;4.22;;;;;;;;;;6260220;28;20500;-75
2022/04/21 13:57:38;;;;;;;5.90;3.70;;;;;;;;;;6257987;28;20484;-75
2022/04/21 14:00:44;;;;;;;7.70;4.15;;;;;;;;;;6260993;28;20108;-75
2022/04/21 14:03:46;;;;;;;6.03;4.32;;;;;;;;;;6257842;28;20057;-75
2022/04/21 14:06:49;;;;;;;7.03;4.18;;;;;;;;;;6255408;28;20108;-75
2022/04/21 14:09:52;;;;;;;6.70;4.03;;;;;;;;;;6255685;28;20191;-76
2022/04/21 14:12:53;;;;;;;6.38;3.60;;;;;;;;;;6254504;28;20069;-76
2022/04/21 14:15:55;;;;;;;6.43;4.65;;;;;;;;;;6254398;28;20289;-70
2022/04/21 14:18:57;;;;;;;5.18;4.03;;;;;;;;;;6256916;28;20053;-76
2022/04/21 14:21:59;;;;;;;5.68;3.67;;;;;;;;;;6259013;28;20053;-73
2022/04/21 14:25:02;;;;;;;5.95;3.90;;;;;;;;;;6266740;28;20159;-74
2022/04/21 14:28:04;;;;;;;7.33;3.80;;;;;;;;;;6261309;28;20127;-76
2022/04/21 14:31:07;;;;;;;7.47;4.18;;;;;;;;;;6263753;28;20048;-74
2022/04/21 14:34:09;;;;;;;9.30;3.97;;;;;;;;;;6257219;28;20057;-75
2022/04/21 14:37:11;;;;;;;8.63;4.30;;;;;;;;;;6259137;28;20045;-75
2022/04/21 14:46:54;;;;;;;5.38;3.60;;;;;;;;;;6258203;28;20053;-77
2022/04/21 14:49:55;;;;;;;5.45;4.15;;;;;;;;;;6257751;28;20046;-76
2022/04/21 14:52:57;;;;;;;7.53;4.05;;;;;;;;;;6263771;28;20456;-74
2022/04/21 14:56:00;;;;;;;6.93;4.53;;;;;;;;;;6253713;28;20437;-76
2022/04/21 14:59:02;;;;;;;7.30;5.07;;;;;;;;;;6265817;28;20048;-75
2022/04/21 15:02:07;;;;;;;7.53;4.53;;;;;;;;;;6263104;28;20045;-75
2022/04/21 15:05:09;;;;;;;6.20;4.90;;;;;;;;;;6263103;28;20053;-77
2022/04/21 15:08:11;;;;;;;6.13;4.72;;;;;;;;;;6262837;28;20064;-75
2022/04/21 15:11:14;;;;;;;5.53;4.07;;;;;;;;;;6265984;28;20057;-76
2022/04/21 15:14:16;;;;;;;7.23;4.40;;;;;;;;;;6264498;28;20179;-75
2022/04/21 15:17:17;;;;;;;6.60;3.60;;;;;;;;;;6259788;28;20045;-76
2022/04/21 15:20:19;;;;;;;5.63;4.10;;;;;;;;;;6263869;28;20167;-74
2022/04/21 15:23:21;;;;;;;6.80;4.10;;;;;;;;;;6262045;28;20405;-74
2022/04/21 15:26:24;;;;;;;5.80;3.92;;;;;;;;;;6264398;28;20079;-75
2022/04/21 15:29:26;;;;;;;6.37;4.30;;;;;;;;;;6256952;28;20134;-74
2022/04/21 15:32:27;;;;;;;4.50;3.55;;;;;;;;;;6260968;28;20063;-72
2022/04/21 15:35:29;;;;;;;8.85;3.20;;;;;;;;;;6263528;28;20057;-74
2022/04/21 15:38:30;;;;;;;6.05;2.90;;;;;;;;;;6263541;28;20053;-74
2022/04/21 15:41:33;;;;;;;4.15;3.22;;;;;;;;;;6264779;28;20445;-75
2022/04/21 15:44:35;;;;;;;4.60;3.40;;;;;;;;;;6264872;28;20130;-75
2022/04/21 15:47:37;;;;;;;4.55;3.80;;;;;;;;;;6253685;28;20155;-75
2022/04/21 15:50:39;;;;;;;10.52;4.53;;;;;;;;;;6262840;28;20068;-75
2022/04/21 16:00:22;;;;;;;8.35;3.65;;;;;;;;;;6270553;28;20041;-75
2022/04/21 16:03:24;;;;;;;7.77;3.70;;;;;;;;;;6271759;28;20053;-75
2022/04/21 16:06:27;;;;;;;7.80;3.92;;;;;;;;;;6259029;28;20049;-76
2022/04/21 16:09:29;;;;;;;8.40;4.03;;;;;;;;;;6253985;28;20071;-75
2022/04/21 16:12:32;;;;;;;8.65;4.00;;;;;;;;;;6255558;28;20060;-75
2022/04/21 16:15:34;;;;;;;6.82;4.75;;;;;;;;;;6257707;28;20049;-75
2022/04/21 16:18:36;;;;;;;6.72;4.90;;;;;;;;;;6260730;28;20123;-75
2022/04/21 16:21:38;;;;;;;7.50;4.80;;;;;;;;;;6259284;28;20106;-75
2022/04/21 16:24:40;;;;;;;6.47;5.03;;;;;;;;;;6259515;28;20517;-75
2022/04/21 16:27:44;;;;;;;5.32;4.50;;;;;;;;;;6262775;28;20063;-76
2022/04/21 16:30:45;;;;;;;6.15;4.78;;;;;;;;;;6256665;28;20056;-75
2022/04/21 16:33:47;;;;;;;7.43;5.40;;;;;;;;;;6256995;28;20063;-75
2022/04/21 16:36:48;;;;;;;9.77;4.80;;;;;;;;;;6255720;28;20120;-76
2022/04/21 16:39:55;;;;;;;7.13;5.20;;;;;;;;;;6256239;28;20111;-75
2022/04/21 16:43:01;;;;;;;7.80;4.78;;;;;;;;;;6262731;28;20056;-75
2022/04/21 16:46:04;;;;;;;9.02;5.20;;;;;;;;;;6261350;28;20588;-75
2022/04/21 16:49:06;;;;;;;8.25;5.00;;;;;;;;;;6262920;28;20084;-74
2022/04/21 16:52:08;;;;;;;6.90;4.68;;;;;;;;;;6261015;28;20033;-75
2022/04/21 16:55:10;;;;;;;9.18;5.05;;;;;;;;;;6267920;28;20137;-75
2022/04/21 16:58:13;;;;;;;6.88;5.15;;;;;;;;;;6262096;28;20045;-75
2022/04/21 17:04:44;;;;;;;6.78;4.93;;;;;;;;;;6262482;28;20530;-75
2022/04/21 17:07:49;;;;;;;7.15;5.07;;;;;;;;;;6260918;28;20130;-75
2022/04/21 17:10:52;;;;;;;8.95;5.18;;;;;;;;;;6263455;28;20100;-76
2022/04/21 17:13:56;;;;;;;6.63;5.25;;;;;;;;;;6258380;28;20204;-75
2022/04/21 17:16:57;;;;;;;;;;;;;;;;;;6260383;28;20069;-73
2022/04/21 17:19:59;;;;;;;6.20;5.28;;;;;;;;;;6252331;28;19925;-75
2022/04/21 17:23:02;;;;;;;9.10;5.18;;;;;;;;;;6253364;28;20054;-75
2022/04/21 17:26:04;;;;;;;10.82;4.78;;;;;;;;;;6257967;28;20053;-74
2022/04/21 17:29:07;;;;;;;6.32;5.25;;;;;;;;;;6255197;28;20768;-75
2022/04/21 17:32:10;;;;;;;7.28;5.28;;;;;;;;;;6254689;28;20516;-75
2022/04/21 17:35:11;;;;;;;7.38;4.70;;;;;;;;;;6261562;28;20064;-71
2022/04/21 17:38:13;;;;;;;6.90;4.78;;;;;;;;;;6257804;28;20045;-71
2022/04/21 17:41:15;;;;;;;9.00;5.38;;;;;;;;;;6254025;28;20040;-72
2022/04/21 17:44:18;;;;;;;8.93;5.22;;;;;;;;;;6255340;28;20115;-73
2022/04/21 17:47:20;;;;;;;8.15;5.28;;;;;;;;;;6256898;28;20041;-72
2022/04/21 17:50:22;;;;;;;7.43;5.00;;;;;;;;;;6260145;28;20053;-72
2022/04/21 17:53:24;;;;;;;9.95;5.28;;;;;;;;;;6259633;28;20053;-72
2022/04/21 17:56:25;;;;;;;14.35;5.20;;;;;;;;;;6257351;28;20053;-72
2022/04/21 17:59:29;;;;;;;7.55;5.05;;;;;;;;;;6258716;28;20065;-72
2022/04/21 18:02:30;;;;;;;5.33;4.17;;;;;;;;;;6262460;28;20049;-70
2022/04/21 18:05:33;;;;;;;26.70;14.68;;;;;;;;;;6253837;28;20119;-71
2022/04/21 18:08:35;;;;;;;52.63;26.33;;;;;;;;;;6254281;28;20132;-74
2022/04/21 18:11:36;;;;;;;37.15;21.85;;;;;;;;;;6253680;28;20136;-73
2022/04/21 18:14:39;;;;;;;46.80;23.20;;;;;;;;;;6254030;28;20087;-73
2022/04/21 18:17:41;;;;;;;88.10;43.35;;;;;;;;;;6250510;28;20135;-73
2022/04/21 18:20:43;;;;;;;37.63;22.98;;;;;;;;;;6256676;28;20409;-73
2022/04/21 18:23:45;;;;;;;35.10;21.30;;;;;;;;;;6255125;28;20160;-72
2022/04/21 18:26:47;;;;;;;88.57;48.60;;;;;;;;;;6255091;28;20064;-72
2022/04/21 18:29:50;;;;;;;55.90;32.63;;;;;;;;;;6251211;28;20053;-72
2022/04/21 18:32:52;;;;;;;25.58;13.27;;;;;;;;;;6253375;28;20501;-72
2022/04/21 18:35:54;;;;;;;11.15;6.43;;;;;;;;;;6251158;28;20144;-70
2022/04/21 18:38:56;;;;;;;7.00;5.40;;;;;;;;;;6257936;28;20138;-71
2022/04/21 18:41:57;;;;;;;11.20;5.30;;;;;;;;;;6255686;28;20045;-70
2022/04/21 18:45:03;;;;;;;8.15;5.40;;;;;;;;;;6256647;28;20512;-69
2022/04/21 18:48:05;;;;;;;11.88;5.78;;;;;;;;;;6252169;28;20056;-72
2022/04/21 18:51:07;;;;;;;12.18;5.18;;;;;;;;;;6254345;28;20095;-71
2022/04/21 18:54:11;;;;;;;9.88;5.07;;;;;;;;;;6256314;28;20397;-71
2022/04/21 18:57:12;;;;;;;10.18;6.05;;;;;;;;;;6260803;28;20408;-71
2022/04/21 19:00:18;;;;;;;7.55;5.32;;;;;;;;;;6255879;28;20072;-70
2022/04/21 19:03:20;;;;;;;6.28;5.38;;;;;;;;;;6255351;28;20052;-70
2022/04/21 19:06:23;;;;;;;9.57;5.38;;;;;;;;;;6258167;28;20055;-71
2022/04/21 19:12:44;;;;;;;9.25;6.00;;;;;;;;;;6263988;28;20045;-71
2022/04/21 19:15:47;;;;;;;8.68;6.05;;;;;;;;;;6258562;28;20069;-70
2022/04/21 19:18:49;;;;;;;9.60;5.65;;;;;;;;;;6262056;28;20132;-70
2022/04/21 19:21:51;;;;;;;8.95;6.07;;;;;;;;;;6258361;28;20075;-70
2022/04/21 19:24:52;;;;;;;7.82;5.88;;;;;;;;;;6263782;28;20063;-69
2022/04/21 19:27:57;;;;;;;9.38;6.38;;;;;;;;;;6263613;28;20053;-70
2022/04/21 19:31:00;;;;;;;9.90;6.00;;;;;;;;;;6263012;28;20045;-70
2022/04/21 19:34:04;;;;;;;8.73;6.18;;;;;;;;;;6259514;28;20052;-70